This is the latest recevied weather packets stored in our database for station/object N6ZHV-13. If no packets are shown the sender has not sent any weather packets the latest 1 day(s).
| Time | Temp. | Humidity | Pressure | Rain* | Wind** | Luminosity | Snow |
|---|---|---|---|---|---|---|---|
| 1778007291 | 17.22° C | 54% | 1017.4 hPa | 0 mm | 1.79 m/s, 277° | - | - |
| 1778006991 | 17.22° C | 57% | 1017.4 hPa | 0 mm | 1.34 m/s, 260° | - | - |
| 1778006691 | 17.22° C | 57% | 1017.4 hPa | 0 mm | 1.34 m/s, 271° | - | - |
| 1778006391 | 16.67° C | 57% | 1017.5 hPa | 0 mm | 1.79 m/s, 251° | - | - |
| 1778006091 | 16.67° C | 58% | 1017.4 hPa | 0 mm | 1.34 m/s, 217° | - | - |
| 1778005791 | 16.67° C | 58% | 1017.4 hPa | 0 mm | 2.24 m/s, 210° | - | - |
| 1778005491 | 16.67° C | 60% | 1017.4 hPa | 0 mm | 1.79 m/s, 206° | - | - |
| 1778005191 | 16.67° C | 62% | 1017.5 hPa | 0 mm | 1.79 m/s, 195° | - | - |
| 1778004891 | 16.11° C | 63% | 1017.5 hPa | 0 mm | 2.68 m/s, 279° | - | - |
| 1778004591 | 16.11° C | 67% | 1017.5 hPa | 0 mm | 0.89 m/s, 196° | - | - |
| 1778004291 | 16.11° C | 66% | 1017.5 hPa | 0 mm | 0.45 m/s, 284° | - | - |
| 1778003991 | 16.11° C | 67% | 1017.5 hPa | 0 mm | 0 m/s | - | - |
| 1778003691 | 15.56° C | 66% | 1017.5 hPa | 0 mm | 0 m/s | - | - |
| 1778003391 | 16.11° C | 71% | 1017.5 hPa | 0 mm | 0.45 m/s, 164° | - | - |
| 1778003091 | 15.56° C | 70% | 1017.4 hPa | 0 mm | 0 m/s | - | - |
| 1778002791 | 15.56° C | 71% | 1017.5 hPa | 0 mm | 0.89 m/s, 329° | - | - |
| 1778002491 | 15° C | 73% | 1017.4 hPa | 0 mm | 0 m/s | - | - |
| 1778002191 | 15° C | 73% | 1017.4 hPa | 0 mm | 0 m/s | - | - |
| 1778001891 | 15° C | 76% | 1017.5 hPa | 0 mm | 0.45 m/s, 275° | - | - |
| 1778001591 | 14.44° C | 78% | 1017.5 hPa | 0 mm | 0 m/s | - | - |
| 1778001291 | 14.44° C | 81% | 1017.5 hPa | 0 mm | 0 m/s | - | - |
| 1778000991 | 13.89° C | 83% | 1017.4 hPa | 0 mm | 0 m/s | - | - |
| 1778000691 | 13.89° C | 84% | 1017.4 hPa | 0 mm | 0 m/s | - | - |
| 1778000391 | 13.89° C | 86% | 1017.4 hPa | 0 mm | 0 m/s | - | - |
| 1778000091 | 13.89° C | 86% | 1017.3 hPa | 0 mm | 0 m/s | - | - |
* Rain latest hour (hover to see other rain measurements)
** Current wind speed in m/s (hover to see current wind gust speed)